sensor_id;sensor_type;location;lat;lon;timestamp;P1;durP1;ratioP1;P2;durP2;ratioP2
10586;SDS011;5341;47.606;7.576;2022-08-03T00:01:51;6.18;;;5.55;;
10586;SDS011;5341;47.606;7.576;2022-08-03T00:04:18;15.13;;;13.73;;
10586;SDS011;5341;47.606;7.576;2022-08-03T00:06:46;44.65;;;38.33;;
10586;SDS011;5341;47.606;7.576;2022-08-03T00:09:15;33.35;;;29.83;;
10586;SDS011;5341;47.606;7.576;2022-08-03T00:11:44;16.27;;;14.57;;
10586;SDS011;5341;47.606;7.576;2022-08-03T00:14:12;13.85;;;12.45;;
10586;SDS011;5341;47.606;7.576;2022-08-03T00:16:39;9.65;;;5.53;;
10586;SDS011;5341;47.606;7.576;2022-08-03T00:19:07;4.10;;;3.70;;
10586;SDS011;5341;47.606;7.576;2022-08-03T00:21:36;3.47;;;3.03;;
10586;SDS011;5341;47.606;7.576;2022-08-03T00:24:04;5.13;;;2.70;;
10586;SDS011;5341;47.606;7.576;2022-08-03T00:26:32;4.50;;;2.50;;
10586;SDS011;5341;47.606;7.576;2022-08-03T00:29:01;4.00;;;2.35;;
10586;SDS011;5341;47.606;7.576;2022-08-03T00:31:28;3.30;;;2.30;;
10586;SDS011;5341;47.606;7.576;2022-08-03T00:33:57;6.32;;;2.78;;
10586;SDS011;5341;47.606;7.576;2022-08-03T00:36:25;3.72;;;3.35;;
10586;SDS011;5341;47.606;7.576;2022-08-03T00:38:53;8.73;;;6.47;;
10586;SDS011;5341;47.606;7.576;2022-08-03T00:41:20;6.70;;;4.30;;
10586;SDS011;5341;47.606;7.576;2022-08-03T00:43:48;6.03;;;4.25;;
10586;SDS011;5341;47.606;7.576;2022-08-03T00:46:17;8.05;;;6.25;;
10586;SDS011;5341;47.606;7.576;2022-08-03T00:48:46;5.47;;;3.15;;
10586;SDS011;5341;47.606;7.576;2022-08-03T00:51:14;3.17;;;2.80;;
10586;SDS011;5341;47.606;7.576;2022-08-03T00:53:42;2.90;;;2.42;;
10586;SDS011;5341;47.606;7.576;2022-08-03T00:56:11;3.72;;;2.30;;
10586;SDS011;5341;47.606;7.576;2022-08-03T00:58:40;2.55;;;2.20;;
10586;SDS011;5341;47.606;7.576;2022-08-03T01:01:09;3.08;;;2.33;;
10586;SDS011;5341;47.606;7.576;2022-08-03T01:03:39;2.47;;;2.10;;
10586;SDS011;5341;47.606;7.576;2022-08-03T01:06:10;4.25;;;2.20;;
10586;SDS011;5341;47.606;7.576;2022-08-03T01:08:43;3.22;;;2.30;;
10586;SDS011;5341;47.606;7.576;2022-08-03T01:11:18;2.75;;;2.13;;
10586;SDS011;5341;47.606;7.576;2022-08-03T01:13:56;3.67;;;2.00;;
10586;SDS011;5341;47.606;7.576;2022-08-03T01:16:31;6.18;;;2.00;;
10586;SDS011;5341;47.606;7.576;2022-08-03T01:19:17;4.30;;;2.10;;
10586;SDS011;5341;47.606;7.576;2022-08-03T01:21:58;3.63;;;1.95;;
10586;SDS011;5341;47.606;7.576;2022-08-03T01:24:41;1.95;;;1.80;;
10586;SDS011;5341;47.606;7.576;2022-08-03T01:27:17;3.20;;;1.98;;
10586;SDS011;5341;47.606;7.576;2022-08-03T01:29:59;2.20;;;1.88;;
10586;SDS011;5341;47.606;7.576;2022-08-03T01:32:33;3.00;;;2.03;;
10586;SDS011;5341;47.606;7.576;2022-08-03T01:35:09;3.47;;;1.90;;
10586;SDS011;5341;47.606;7.576;2022-08-03T01:37:40;2.97;;;2.05;;
10586;SDS011;5341;47.606;7.576;2022-08-03T01:40:10;2.22;;;2.00;;
10586;SDS011;5341;47.606;7.576;2022-08-03T01:42:40;6.10;;;2.10;;
10586;SDS011;5341;47.606;7.576;2022-08-03T01:45:13;4.47;;;2.30;;
10586;SDS011;5341;47.606;7.576;2022-08-03T01:47:43;2.17;;;1.77;;
10586;SDS011;5341;47.606;7.576;2022-08-03T01:50:12;4.47;;;2.00;;
10586;SDS011;5341;47.606;7.576;2022-08-03T01:52:41;3.10;;;2.10;;
10586;SDS011;5341;47.606;7.576;2022-08-03T01:55:11;3.97;;;2.33;;
10586;SDS011;5341;47.606;7.576;2022-08-03T01:57:43;2.20;;;1.90;;
10586;SDS011;5341;47.606;7.576;2022-08-03T02:00:17;2.40;;;2.20;;
10586;SDS011;5341;47.606;7.576;2022-08-03T02:02:45;2.92;;;2.20;;
10586;SDS011;5341;47.606;7.576;2022-08-03T02:05:15;2.78;;;2.20;;
10586;SDS011;5341;47.606;7.576;2022-08-03T02:07:44;2.67;;;2.03;;
10586;SDS011;5341;47.606;7.576;2022-08-03T02:10:14;2.78;;;1.90;;
10586;SDS011;5341;47.606;7.576;2022-08-03T02:12:46;5.20;;;2.22;;
10586;SDS011;5341;47.606;7.576;2022-08-03T02:15:16;2.35;;;1.90;;
10586;SDS011;5341;47.606;7.576;2022-08-03T02:17:45;3.60;;;2.10;;
10586;SDS011;5341;47.606;7.576;2022-08-03T02:20:14;2.13;;;1.95;;
10586;SDS011;5341;47.606;7.576;2022-08-03T02:22:44;2.10;;;1.90;;
10586;SDS011;5341;47.606;7.576;2022-08-03T02:25:13;2.17;;;1.92;;
10586;SDS011;5341;47.606;7.576;2022-08-03T02:27:42;2.85;;;1.90;;
10586;SDS011;5341;47.606;7.576;2022-08-03T02:30:24;2.15;;;1.80;;
10586;SDS011;5341;47.606;7.576;2022-08-03T02:32:56;2.28;;;1.88;;
10586;SDS011;5341;47.606;7.576;2022-08-03T02:35:26;3.10;;;2.30;;
10586;SDS011;5341;47.606;7.576;2022-08-03T02:37:57;2.40;;;1.98;;
10586;SDS011;5341;47.606;7.576;2022-08-03T02:40:28;2.95;;;2.00;;
10586;SDS011;5341;47.606;7.576;2022-08-03T02:42:58;2.47;;;2.28;;
10586;SDS011;5341;47.606;7.576;2022-08-03T02:45:31;2.38;;;2.00;;
10586;SDS011;5341;47.606;7.576;2022-08-03T02:48:02;3.78;;;2.05;;
10586;SDS011;5341;47.606;7.576;2022-08-03T02:50:32;3.85;;;2.00;;
10586;SDS011;5341;47.606;7.576;2022-08-03T02:53:01;1.80;;;1.70;;
10586;SDS011;5341;47.606;7.576;2022-08-03T02:55:30;2.03;;;1.83;;
10586;SDS011;5341;47.606;7.576;2022-08-03T02:58:01;2.25;;;2.00;;
10586;SDS011;5341;47.606;7.576;2022-08-03T03:00:31;2.17;;;1.65;;
10586;SDS011;5341;47.606;7.576;2022-08-03T03:03:00;2.10;;;1.90;;
10586;SDS011;5341;47.606;7.576;2022-08-03T03:05:30;2.10;;;1.90;;
10586;SDS011;5341;47.606;7.576;2022-08-03T03:08:01;2.20;;;1.88;;
10586;SDS011;5341;47.606;7.576;2022-08-03T03:10:29;2.72;;;1.90;;
10586;SDS011;5341;47.606;7.576;2022-08-03T03:12:57;2.30;;;1.90;;
10586;SDS011;5341;47.606;7.576;2022-08-03T03:15:27;2.50;;;2.00;;
10586;SDS011;5341;47.606;7.576;2022-08-03T03:17:57;2.28;;;2.08;;
10586;SDS011;5341;47.606;7.576;2022-08-03T03:20:27;2.22;;;1.90;;
10586;SDS011;5341;47.606;7.576;2022-08-03T03:22:57;2.60;;;1.98;;
10586;SDS011;5341;47.606;7.576;2022-08-03T03:25:26;3.80;;;2.10;;
10586;SDS011;5341;47.606;7.576;2022-08-03T03:27:54;2.10;;;1.92;;
10586;SDS011;5341;47.606;7.576;2022-08-03T03:30:22;3.05;;;2.10;;
10586;SDS011;5341;47.606;7.576;2022-08-03T03:32:50;2.40;;;2.00;;
10586;SDS011;5341;47.606;7.576;2022-08-03T03:35:19;2.75;;;2.08;;
10586;SDS011;5341;47.606;7.576;2022-08-03T03:37:47;2.60;;;1.88;;
10586;SDS011;5341;47.606;7.576;2022-08-03T03:40:15;1.95;;;1.85;;
10586;SDS011;5341;47.606;7.576;2022-08-03T03:42:43;2.65;;;1.90;;
10586;SDS011;5341;47.606;7.576;2022-08-03T03:45:11;3.75;;;1.95;;
10586;SDS011;5341;47.606;7.576;2022-08-03T03:47:39;2.97;;;1.80;;
10586;SDS011;5341;47.606;7.576;2022-08-03T03:50:07;3.30;;;1.92;;
10586;SDS011;5341;47.606;7.576;2022-08-03T03:52:36;2.13;;;1.92;;
10586;SDS011;5341;47.606;7.576;2022-08-03T03:55:04;2.20;;;2.00;;
10586;SDS011;5341;47.606;7.576;2022-08-03T03:57:33;2.05;;;1.85;;
10586;SDS011;5341;47.606;7.576;2022-08-03T04:00:00;2.60;;;2.13;;
10586;SDS011;5341;47.606;7.576;2022-08-03T04:02:29;2.22;;;1.98;;
10586;SDS011;5341;47.606;7.576;2022-08-03T04:04:57;2.10;;;1.90;;
10586;SDS011;5341;47.606;7.576;2022-08-03T04:07:45;2.13;;;1.92;;
10586;SDS011;5341;47.606;7.576;2022-08-03T04:10:38;4.38;;;2.03;;
10586;SDS011;5341;47.606;7.576;2022-08-03T04:13:26;2.33;;;2.13;;
10586;SDS011;5341;47.606;7.576;2022-08-03T04:15:56;2.35;;;2.15;;
10586;SDS011;5341;47.606;7.576;2022-08-03T04:18:25;2.47;;;2.20;;
10586;SDS011;5341;47.606;7.576;2022-08-03T04:20:56;2.50;;;2.10;;
10586;SDS011;5341;47.606;7.576;2022-08-03T04:23:27;3.13;;;2.35;;
10586;SDS011;5341;47.606;7.576;2022-08-03T04:25:58;2.40;;;2.20;;
10586;SDS011;5341;47.606;7.576;2022-08-03T04:28:28;3.38;;;2.28;;
10586;SDS011;5341;47.606;7.576;2022-08-03T04:30:59;3.08;;;2.00;;
10586;SDS011;5341;47.606;7.576;2022-08-03T04:33:32;2.63;;;1.95;;
10586;SDS011;5341;47.606;7.576;2022-08-03T04:36:03;2.40;;;2.20;;
10586;SDS011;5341;47.606;7.576;2022-08-03T04:38:38;3.50;;;2.55;;
10586;SDS011;5341;47.606;7.576;2022-08-03T04:41:17;2.28;;;2.08;;
10586;SDS011;5341;47.606;7.576;2022-08-03T04:43:47;2.17;;;1.98;;
10586;SDS011;5341;47.606;7.576;2022-08-03T04:46:17;2.45;;;2.20;;
10586;SDS011;5341;47.606;7.576;2022-08-03T04:48:48;2.47;;;2.28;;
10586;SDS011;5341;47.606;7.576;2022-08-03T04:51:16;2.28;;;2.08;;
10586;SDS011;5341;47.606;7.576;2022-08-03T04:53:45;3.63;;;2.40;;
10586;SDS011;5341;47.606;7.576;2022-08-03T04:56:13;2.33;;;1.90;;
10586;SDS011;5341;47.606;7.576;2022-08-03T04:58:41;2.33;;;2.13;;
10586;SDS011;5341;47.606;7.576;2022-08-03T05:01:10;2.72;;;2.20;;
10586;SDS011;5341;47.606;7.576;2022-08-03T05:03:38;2.80;;;2.20;;
10586;SDS011;5341;47.606;7.576;2022-08-03T05:06:06;2.60;;;2.40;;
10586;SDS011;5341;47.606;7.576;2022-08-03T05:08:34;3.17;;;2.40;;
10586;SDS011;5341;47.606;7.576;2022-08-03T05:11:04;2.60;;;2.40;;
10586;SDS011;5341;47.606;7.576;2022-08-03T05:13:32;3.95;;;2.63;;
10586;SDS011;5341;47.606;7.576;2022-08-03T05:16:01;2.60;;;2.20;;
10586;SDS011;5341;47.606;7.576;2022-08-03T05:18:28;3.63;;;2.47;;
10586;SDS011;5341;47.606;7.576;2022-08-03T05:20:57;2.75;;;2.30;;
10586;SDS011;5341;47.606;7.576;2022-08-03T05:23:24;4.15;;;2.58;;
10586;SDS011;5341;47.606;7.576;2022-08-03T05:25:52;2.47;;;2.28;;
10586;SDS011;5341;47.606;7.576;2022-08-03T05:28:21;2.60;;;2.40;;
10586;SDS011;5341;47.606;7.576;2022-08-03T05:30:49;3.50;;;2.25;;
10586;SDS011;5341;47.606;7.576;2022-08-03T05:33:19;6.35;;;2.63;;
10586;SDS011;5341;47.606;7.576;2022-08-03T05:35:46;2.63;;;2.30;;
10586;SDS011;5341;47.606;7.576;2022-08-03T05:38:14;2.97;;;2.40;;
10586;SDS011;5341;47.606;7.576;2022-08-03T05:40:42;3.13;;;2.40;;
10586;SDS011;5341;47.606;7.576;2022-08-03T05:43:10;3.60;;;2.30;;
10586;SDS011;5341;47.606;7.576;2022-08-03T05:45:39;3.38;;;2.60;;
10586;SDS011;5341;47.606;7.576;2022-08-03T05:48:07;3.63;;;2.10;;
10586;SDS011;5341;47.606;7.576;2022-08-03T05:50:35;3.28;;;2.50;;
10586;SDS011;5341;47.606;7.576;2022-08-03T05:53:03;3.08;;;2.50;;
10586;SDS011;5341;47.606;7.576;2022-08-03T05:55:30;2.35;;;2.15;;
10586;SDS011;5341;47.606;7.576;2022-08-03T05:57:58;2.90;;;2.00;;
10586;SDS011;5341;47.606;7.576;2022-08-03T06:00:27;2.50;;;2.30;;
10586;SDS011;5341;47.606;7.576;2022-08-03T06:02:57;2.20;;;2.00;;
10586;SDS011;5341;47.606;7.576;2022-08-03T06:05:24;4.25;;;2.42;;
10586;SDS011;5341;47.606;7.576;2022-08-03T06:07:53;3.38;;;2.33;;
10586;SDS011;5341;47.606;7.576;2022-08-03T06:10:20;4.40;;;2.50;;
10586;SDS011;5341;47.606;7.576;2022-08-03T06:12:48;4.47;;;2.40;;
10586;SDS011;5341;47.606;7.576;2022-08-03T06:15:15;3.17;;;2.20;;
10586;SDS011;5341;47.606;7.576;2022-08-03T06:17:44;3.10;;;2.40;;
10586;SDS011;5341;47.606;7.576;2022-08-03T06:20:16;3.22;;;2.40;;
10586;SDS011;5341;47.606;7.576;2022-08-03T06:22:44;3.58;;;2.40;;
10586;SDS011;5341;47.606;7.576;2022-08-03T06:25:15;6.07;;;2.30;;
10586;SDS011;5341;47.606;7.576;2022-08-03T06:27:46;4.32;;;2.40;;
10586;SDS011;5341;47.606;7.576;2022-08-03T06:30:13;3.08;;;2.60;;
10586;SDS011;5341;47.606;7.576;2022-08-03T06:32:42;5.25;;;2.47;;
10586;SDS011;5341;47.606;7.576;2022-08-03T06:35:10;4.05;;;2.58;;
10586;SDS011;5341;47.606;7.576;2022-08-03T06:37:42;3.20;;;2.53;;
10586;SDS011;5341;47.606;7.576;2022-08-03T06:40:11;5.30;;;2.63;;
10586;SDS011;5341;47.606;7.576;2022-08-03T06:42:40;7.43;;;3.08;;
10586;SDS011;5341;47.606;7.576;2022-08-03T06:45:08;5.18;;;3.10;;
10586;SDS011;5341;47.606;7.576;2022-08-03T06:47:38;4.15;;;2.75;;
10586;SDS011;5341;47.606;7.576;2022-08-03T06:50:09;3.65;;;2.60;;
10586;SDS011;5341;47.606;7.576;2022-08-03T06:52:38;9.02;;;2.90;;
10586;SDS011;5341;47.606;7.576;2022-08-03T06:55:08;6.43;;;2.80;;
10586;SDS011;5341;47.606;7.576;2022-08-03T06:57:38;4.47;;;2.55;;
10586;SDS011;5341;47.606;7.576;2022-08-03T07:00:07;5.18;;;3.20;;
10586;SDS011;5341;47.606;7.576;2022-08-03T07:02:36;3.97;;;2.80;;
10586;SDS011;5341;47.606;7.576;2022-08-03T07:05:07;3.30;;;2.70;;
10586;SDS011;5341;47.606;7.576;2022-08-03T07:07:36;6.35;;;2.80;;
10586;SDS011;5341;47.606;7.576;2022-08-03T07:10:08;6.13;;;2.70;;
10586;SDS011;5341;47.606;7.576;2022-08-03T07:12:38;8.02;;;2.92;;
10586;SDS011;5341;47.606;7.576;2022-08-03T07:15:07;6.38;;;2.95;;
10586;SDS011;5341;47.606;7.576;2022-08-03T07:17:35;8.35;;;3.20;;
10586;SDS011;5341;47.606;7.576;2022-08-03T07:20:05;5.03;;;2.60;;
10586;SDS011;5341;47.606;7.576;2022-08-03T07:22:38;6.43;;;2.78;;
10586;SDS011;5341;47.606;7.576;2022-08-03T07:25:10;5.97;;;3.13;;
10586;SDS011;5341;47.606;7.576;2022-08-03T07:27:41;5.43;;;2.80;;
10586;SDS011;5341;47.606;7.576;2022-08-03T07:30:09;5.68;;;2.85;;
10586;SDS011;5341;47.606;7.576;2022-08-03T07:32:39;5.85;;;2.75;;
10586;SDS011;5341;47.606;7.576;2022-08-03T07:35:08;4.65;;;3.42;;
10586;SDS011;5341;47.606;7.576;2022-08-03T07:37:38;5.97;;;3.08;;
10586;SDS011;5341;47.606;7.576;2022-08-03T07:40:07;5.18;;;2.88;;
10586;SDS011;5341;47.606;7.576;2022-08-03T07:42:36;4.70;;;2.58;;
10586;SDS011;5341;47.606;7.576;2022-08-03T07:45:04;6.88;;;2.75;;
10586;SDS011;5341;47.606;7.576;2022-08-03T07:47:32;4.25;;;2.67;;
10586;SDS011;5341;47.606;7.576;2022-08-03T07:50:00;5.63;;;2.80;;
10586;SDS011;5341;47.606;7.576;2022-08-03T07:52:28;4.25;;;2.88;;
10586;SDS011;5341;47.606;7.576;2022-08-03T07:55:13;3.13;;;2.53;;
10586;SDS011;5341;47.606;7.576;2022-08-03T07:57:43;5.03;;;2.72;;
10586;SDS011;5341;47.606;7.576;2022-08-03T08:00:14;7.38;;;3.20;;
10586;SDS011;5341;47.606;7.576;2022-08-03T08:02:43;4.78;;;2.50;;
10586;SDS011;5341;47.606;7.576;2022-08-03T08:05:12;7.22;;;2.92;;
10586;SDS011;5341;47.606;7.576;2022-08-03T08:07:40;3.15;;;2.85;;
10586;SDS011;5341;47.606;7.576;2022-08-03T08:10:08;5.28;;;2.97;;
10586;SDS011;5341;47.606;7.576;2022-08-03T08:12:38;5.55;;;2.90;;
10586;SDS011;5341;47.606;7.576;2022-08-03T08:15:08;4.32;;;2.65;;
10586;SDS011;5341;47.606;7.576;2022-08-03T08:17:42;4.72;;;2.70;;
10586;SDS011;5341;47.606;7.576;2022-08-03T08:20:14;3.85;;;3.00;;
10586;SDS011;5341;47.606;7.576;2022-08-03T08:22:44;4.15;;;2.97;;
10586;SDS011;5341;47.606;7.576;2022-08-03T08:25:11;2.78;;;2.58;;
10586;SDS011;5341;47.606;7.576;2022-08-03T08:27:42;3.90;;;2.70;;
10586;SDS011;5341;47.606;7.576;2022-08-03T08:30:14;4.40;;;3.10;;
10586;SDS011;5341;47.606;7.576;2022-08-03T08:32:43;6.05;;;2.78;;
10586;SDS011;5341;47.606;7.576;2022-08-03T08:35:11;4.20;;;2.42;;
10586;SDS011;5341;47.606;7.576;2022-08-03T08:37:39;4.38;;;2.60;;
10586;SDS011;5341;47.606;7.576;2022-08-03T08:40:08;5.38;;;2.70;;
10586;SDS011;5341;47.606;7.576;2022-08-03T08:42:38;5.43;;;2.90;;
10586;SDS011;5341;47.606;7.576;2022-08-03T08:45:06;5.60;;;2.70;;
10586;SDS011;5341;47.606;7.576;2022-08-03T08:47:37;3.55;;;2.50;;
10586;SDS011;5341;47.606;7.576;2022-08-03T08:50:07;3.95;;;2.67;;
10586;SDS011;5341;47.606;7.576;2022-08-03T08:52:36;4.57;;;2.65;;
10586;SDS011;5341;47.606;7.576;2022-08-03T08:55:09;2.42;;;2.10;;
10586;SDS011;5341;47.606;7.576;2022-08-03T08:57:43;2.92;;;2.40;;
10586;SDS011;5341;47.606;7.576;2022-08-03T09:00:14;2.80;;;2.50;;
10586;SDS011;5341;47.606;7.576;2022-08-03T09:02:44;4.07;;;2.50;;
10586;SDS011;5341;47.606;7.576;2022-08-03T09:05:14;6.28;;;2.60;;
10586;SDS011;5341;47.606;7.576;2022-08-03T09:07:45;5.25;;;2.38;;
10586;SDS011;5341;47.606;7.576;2022-08-03T09:10:13;4.13;;;2.90;;
10586;SDS011;5341;47.606;7.576;2022-08-03T09:12:44;4.20;;;2.33;;
10586;SDS011;5341;47.606;7.576;2022-08-03T09:15:18;4.13;;;2.50;;
10586;SDS011;5341;47.606;7.576;2022-08-03T09:17:50;2.72;;;2.53;;
10586;SDS011;5341;47.606;7.576;2022-08-03T09:20:20;8.25;;;2.35;;
10586;SDS011;5341;47.606;7.576;2022-08-03T09:22:53;3.38;;;2.42;;
10586;SDS011;5341;47.606;7.576;2022-08-03T09:25:27;3.28;;;2.40;;
10586;SDS011;5341;47.606;7.576;2022-08-03T09:28:07;4.22;;;2.20;;
10586;SDS011;5341;47.606;7.576;2022-08-03T09:30:36;3.92;;;2.30;;
10586;SDS011;5341;47.606;7.576;2022-08-03T09:33:06;4.32;;;2.30;;
10586;SDS011;5341;47.606;7.576;2022-08-03T09:35:41;2.40;;;2.20;;
10586;SDS011;5341;47.606;7.576;2022-08-03T09:38:10;3.30;;;2.30;;
10586;SDS011;5341;47.606;7.576;2022-08-03T09:40:39;2.58;;;2.22;;
10586;SDS011;5341;47.606;7.576;2022-08-03T09:43:08;4.60;;;2.17;;
10586;SDS011;5341;47.606;7.576;2022-08-03T09:45:36;5.85;;;2.70;;
10586;SDS011;5341;47.606;7.576;2022-08-03T09:48:22;4.32;;;2.40;;
10586;SDS011;5341;47.606;7.576;2022-08-03T09:50:52;2.40;;;2.05;;
10586;SDS011;5341;47.606;7.576;2022-08-03T09:53:21;2.67;;;2.25;;
10586;SDS011;5341;47.606;7.576;2022-08-03T09:55:49;3.03;;;2.10;;
10586;SDS011;5341;47.606;7.576;2022-08-03T09:58:20;5.68;;;2.28;;
10586;SDS011;5341;47.606;7.576;2022-08-03T10:00:51;2.60;;;2.40;;
10586;SDS011;5341;47.606;7.576;2022-08-03T10:03:23;4.18;;;2.20;;
10586;SDS011;5341;47.606;7.576;2022-08-03T10:05:52;2.70;;;2.30;;
10586;SDS011;5341;47.606;7.576;2022-08-03T10:08:21;3.97;;;2.20;;
10586;SDS011;5341;47.606;7.576;2022-08-03T10:10:49;2.47;;;2.17;;
10586;SDS011;5341;47.606;7.576;2022-08-03T10:13:19;5.55;;;2.30;;
10586;SDS011;5341;47.606;7.576;2022-08-03T10:15:48;2.92;;;2.10;;
10586;SDS011;5341;47.606;7.576;2022-08-03T10:18:15;2.50;;;2.05;;
10586;SDS011;5341;47.606;7.576;2022-08-03T10:20:48;4.00;;;2.17;;
10586;SDS011;5341;47.606;7.576;2022-08-03T10:23:17;2.97;;;2.33;;
10586;SDS011;5341;47.606;7.576;2022-08-03T10:25:46;2.50;;;2.00;;
10586;SDS011;5341;47.606;7.576;2022-08-03T10:28:17;4.03;;;2.38;;
10586;SDS011;5341;47.606;7.576;2022-08-03T10:30:47;3.40;;;2.13;;
10586;SDS011;5341;47.606;7.576;2022-08-03T10:33:17;5.60;;;2.20;;
10586;SDS011;5341;47.606;7.576;2022-08-03T10:35:49;2.45;;;2.00;;
10586;SDS011;5341;47.606;7.576;2022-08-03T10:38:21;4.75;;;2.05;;
10586;SDS011;5341;47.606;7.576;2022-08-03T10:40:52;2.63;;;2.08;;
10586;SDS011;5341;47.606;7.576;2022-08-03T10:43:21;2.90;;;2.17;;
10586;SDS011;5341;47.606;7.576;2022-08-03T10:45:53;2.92;;;2.35;;
10586;SDS011;5341;47.606;7.576;2022-08-03T10:48:22;2.33;;;2.10;;
10586;SDS011;5341;47.606;7.576;2022-08-03T10:50:53;2.30;;;2.10;;
10586;SDS011;5341;47.606;7.576;2022-08-03T10:53:32;2.50;;;2.03;;
10586;SDS011;5341;47.606;7.576;2022-08-03T10:56:02;3.20;;;2.05;;
10586;SDS011;5341;47.606;7.576;2022-08-03T10:58:48;3.75;;;2.33;;
10586;SDS011;5341;47.606;7.576;2022-08-03T11:01:17;4.32;;;2.00;;
10586;SDS011;5341;47.606;7.576;2022-08-03T11:07:16;2.45;;;2.22;;
10586;SDS011;5341;47.606;7.576;2022-08-03T11:09:49;2.72;;;2.10;;
10586;SDS011;5341;47.606;7.576;2022-08-03T11:12:20;5.15;;;2.20;;
10586;SDS011;5341;47.606;7.576;2022-08-03T11:14:48;2.30;;;2.00;;
10586;SDS011;5341;47.606;7.576;2022-08-03T11:17:16;2.58;;;1.80;;
10586;SDS011;5341;47.606;7.576;2022-08-03T11:19:45;2.40;;;2.10;;
10586;SDS011;5341;47.606;7.576;2022-08-03T11:22:14;4.60;;;2.05;;
10586;SDS011;5341;47.606;7.576;2022-08-03T11:25:02;2.00;;;1.80;;
10586;SDS011;5341;47.606;7.576;2022-08-03T11:27:31;2.58;;;1.95;;
10586;SDS011;5341;47.606;7.576;2022-08-03T11:30:00;2.13;;;1.90;;
10586;SDS011;5341;47.606;7.576;2022-08-03T11:35:34;2.00;;;1.63;;
10586;SDS011;5341;47.606;7.576;2022-08-03T11:38:21;1.52;;;1.42;;
10586;SDS011;5341;47.606;7.576;2022-08-03T11:40:51;1.90;;;1.70;;
10586;SDS011;5341;47.606;7.576;2022-08-03T11:46:20;1.92;;;1.65;;
10586;SDS011;5341;47.606;7.576;2022-08-03T11:48:48;4.70;;;1.70;;
10586;SDS011;5341;47.606;7.576;2022-08-03T11:51:20;3.42;;;1.70;;
10586;SDS011;5341;47.606;7.576;2022-08-03T11:53:53;1.70;;;1.60;;
10586;SDS011;5341;47.606;7.576;2022-08-03T11:56:23;3.10;;;1.70;;
10586;SDS011;5341;47.606;7.576;2022-08-03T11:58:52;2.42;;;1.70;;
10586;SDS011;5341;47.606;7.576;2022-08-03T12:01:21;1.88;;;1.73;;
10586;SDS011;5341;47.606;7.576;2022-08-03T12:03:50;1.85;;;1.67;;
10586;SDS011;5341;47.606;7.576;2022-08-03T12:06:18;2.13;;;1.70;;
10586;SDS011;5341;47.606;7.576;2022-08-03T12:08:46;7.45;;;1.80;;
10586;SDS011;5341;47.606;7.576;2022-08-03T12:11:14;2.78;;;1.80;;
10586;SDS011;5341;47.606;7.576;2022-08-03T12:13:44;2.25;;;1.90;;
10586;SDS011;5341;47.606;7.576;2022-08-03T12:16:16;4.57;;;1.98;;
10586;SDS011;5341;47.606;7.576;2022-08-03T12:18:44;3.88;;;1.65;;
10586;SDS011;5341;47.606;7.576;2022-08-03T12:21:12;4.40;;;1.77;;
10586;SDS011;5341;47.606;7.576;2022-08-03T12:23:41;3.10;;;1.60;;
10586;SDS011;5341;47.606;7.576;2022-08-03T12:26:08;2.58;;;1.70;;
10586;SDS011;5341;47.606;7.576;2022-08-03T12:28:36;1.65;;;1.50;;
10586;SDS011;5341;47.606;7.576;2022-08-03T12:31:06;4.90;;;1.67;;
10586;SDS011;5341;47.606;7.576;2022-08-03T12:36:23;2.03;;;1.40;;
10586;SDS011;5341;47.606;7.576;2022-08-03T12:38:53;1.65;;;1.50;;
10586;SDS011;5341;47.606;7.576;2022-08-03T12:41:26;3.35;;;1.42;;
10586;SDS011;5341;47.606;7.576;2022-08-03T12:43:55;3.15;;;1.50;;
10586;SDS011;5341;47.606;7.576;2022-08-03T12:46:28;1.75;;;1.65;;
10586;SDS011;5341;47.606;7.576;2022-08-03T12:48:57;1.83;;;1.70;;
10586;SDS011;5341;47.606;7.576;2022-08-03T12:51:31;2.28;;;1.55;;
10586;SDS011;5341;47.606;7.576;2022-08-03T12:54:01;1.85;;;1.60;;
10586;SDS011;5341;47.606;7.576;2022-08-03T12:56:30;2.60;;;1.67;;
10586;SDS011;5341;47.606;7.576;2022-08-03T12:58:58;3.17;;;1.70;;
10586;SDS011;5341;47.606;7.576;2022-08-03T13:01:27;3.35;;;1.67;;
10586;SDS011;5341;47.606;7.576;2022-08-03T13:04:03;2.83;;;1.65;;
10586;SDS011;5341;47.606;7.576;2022-08-03T13:06:31;1.88;;;1.55;;
10586;SDS011;5341;47.606;7.576;2022-08-03T13:09:03;2.72;;;1.50;;
10586;SDS011;5341;47.606;7.576;2022-08-03T13:11:31;2.25;;;1.50;;
10586;SDS011;5341;47.606;7.576;2022-08-03T13:13:59;1.75;;;1.60;;
10586;SDS011;5341;47.606;7.576;2022-08-03T13:16:28;1.75;;;1.40;;
10586;SDS011;5341;47.606;7.576;2022-08-03T13:18:56;1.90;;;1.67;;
10586;SDS011;5341;47.606;7.576;2022-08-03T13:21:24;3.15;;;1.67;;
10586;SDS011;5341;47.606;7.576;2022-08-03T13:23:52;3.40;;;1.63;;
10586;SDS011;5341;47.606;7.576;2022-08-03T13:26:21;5.43;;;1.67;;
10586;SDS011;5341;47.606;7.576;2022-08-03T13:28:49;3.40;;;1.88;;
10586;SDS011;5341;47.606;7.576;2022-08-03T13:31:16;2.78;;;1.70;;
10586;SDS011;5341;47.606;7.576;2022-08-03T13:33:45;2.63;;;1.55;;
10586;SDS011;5341;47.606;7.576;2022-08-03T13:36:13;2.85;;;1.58;;
10586;SDS011;5341;47.606;7.576;2022-08-03T13:38:41;2.75;;;1.52;;
10586;SDS011;5341;47.606;7.576;2022-08-03T13:41:09;3.17;;;1.55;;
10586;SDS011;5341;47.606;7.576;2022-08-03T13:43:36;2.40;;;1.60;;
10586;SDS011;5341;47.606;7.576;2022-08-03T13:46:04;1.60;;;1.42;;
10586;SDS011;5341;47.606;7.576;2022-08-03T13:48:31;2.03;;;1.75;;
10586;SDS011;5341;47.606;7.576;2022-08-03T13:51:01;2.85;;;1.70;;
10586;SDS011;5341;47.606;7.576;2022-08-03T13:53:29;2.72;;;1.73;;
10586;SDS011;5341;47.606;7.576;2022-08-03T13:55:56;2.30;;;1.70;;
10586;SDS011;5341;47.606;7.576;2022-08-03T13:58:24;2.05;;;1.70;;
10586;SDS011;5341;47.606;7.576;2022-08-03T14:00:52;1.80;;;1.70;;
10586;SDS011;5341;47.606;7.576;2022-08-03T14:03:19;2.65;;;1.65;;
10586;SDS011;5341;47.606;7.576;2022-08-03T14:05:47;2.08;;;1.80;;
10586;SDS011;5341;47.606;7.576;2022-08-03T14:08:17;2.45;;;1.77;;
10586;SDS011;5341;47.606;7.576;2022-08-03T14:10:46;3.38;;;1.88;;
10586;SDS011;5341;47.606;7.576;2022-08-03T14:13:14;2.10;;;1.90;;
10586;SDS011;5341;47.606;7.576;2022-08-03T14:15:43;2.40;;;1.70;;
10586;SDS011;5341;47.606;7.576;2022-08-03T14:18:12;3.72;;;1.83;;
10586;SDS011;5341;47.606;7.576;2022-08-03T14:20:40;3.22;;;1.90;;
10586;SDS011;5341;47.606;7.576;2022-08-03T14:23:08;2.20;;;1.83;;
10586;SDS011;5341;47.606;7.576;2022-08-03T14:25:42;1.95;;;1.75;;
10586;SDS011;5341;47.606;7.576;2022-08-03T14:28:09;3.10;;;1.92;;
10586;SDS011;5341;47.606;7.576;2022-08-03T14:30:37;2.45;;;1.83;;
10586;SDS011;5341;47.606;7.576;2022-08-03T14:33:05;2.55;;;1.70;;
10586;SDS011;5341;47.606;7.576;2022-08-03T14:35:32;3.38;;;1.92;;
10586;SDS011;5341;47.606;7.576;2022-08-03T14:38:00;6.18;;;1.75;;
10586;SDS011;5341;47.606;7.576;2022-08-03T14:40:27;2.67;;;2.00;;
10586;SDS011;5341;47.606;7.576;2022-08-03T14:42:57;2.95;;;1.80;;
10586;SDS011;5341;47.606;7.576;2022-08-03T14:45:25;1.77;;;1.65;;
10586;SDS011;5341;47.606;7.576;2022-08-03T14:47:53;2.20;;;2.00;;
10586;SDS011;5341;47.606;7.576;2022-08-03T14:50:20;2.47;;;1.77;;
10586;SDS011;5341;47.606;7.576;2022-08-03T14:52:49;2.15;;;1.90;;
10586;SDS011;5341;47.606;7.576;2022-08-03T14:55:16;3.15;;;1.80;;
10586;SDS011;5341;47.606;7.576;2022-08-03T14:57:44;2.28;;;2.08;;
10586;SDS011;5341;47.606;7.576;2022-08-03T15:00:13;1.95;;;1.70;;
10586;SDS011;5341;47.606;7.576;2022-08-03T15:02:41;3.25;;;1.90;;
10586;SDS011;5341;47.606;7.576;2022-08-03T15:05:09;1.98;;;1.73;;
10586;SDS011;5341;47.606;7.576;2022-08-03T15:07:37;1.73;;;1.63;;
10586;SDS011;5341;47.606;7.576;2022-08-03T15:10:05;3.35;;;1.88;;
10586;SDS011;5341;47.606;7.576;2022-08-03T15:12:33;2.78;;;2.00;;
10586;SDS011;5341;47.606;7.576;2022-08-03T15:15:00;2.15;;;1.83;;
10586;SDS011;5341;47.606;7.576;2022-08-03T15:17:29;2.03;;;1.80;;
10586;SDS011;5341;47.606;7.576;2022-08-03T15:19:57;2.00;;;1.80;;
10586;SDS011;5341;47.606;7.576;2022-08-03T15:22:25;3.15;;;1.88;;
10586;SDS011;5341;47.606;7.576;2022-08-03T15:24:52;1.92;;;1.80;;
10586;SDS011;5341;47.606;7.576;2022-08-03T15:27:20;2.17;;;1.80;;
10586;SDS011;5341;47.606;7.576;2022-08-03T15:29:48;3.53;;;1.90;;